Orbital elements of ARIANE 1 DEB
| Launched | 23 December 1979 |
| Flight ended | – |
| Launch site | Europe's Spaceport, Kourou, French Guiana |
| Owner | France |
| NORAD ID | 40774 |
| Date fetched |
Epoch osculation |
Inc. [°] |
Ecc. | RA asc node [hr] |
Arg Peri. [°] |
Mean anom [°] |
Mean motion [rev/day] |
Abs. mag |
| Date fetched |
Epoch osculation |
Inc. [°] |
Ecc. | RA asc node [hr] |
Arg Peri. [°] |
Mean anom [°] |
Mean motion [rev/day] |
Abs. mag |
| 2026 May 08 17:57 | 2026 May 05 01:07:22 | 18.5941 | 0.59012 | 4.5061 | 115.5818 | 315.3267 | 4.01512 | – |
| 2026 May 07 17:58 | 2026 May 05 01:07:22 | 18.5941 | 0.59012 | 4.5061 | 115.5818 | 315.3267 | 4.01512 | – |
| 2026 May 06 17:57 | 2026 May 05 01:07:22 | 18.5941 | 0.59012 | 4.5061 | 115.5818 | 315.3267 | 4.01512 | – |
| 2026 May 05 17:57 | 2026 May 05 01:07:22 | 18.5941 | 0.59012 | 4.5061 | 115.5818 | 315.3267 | 4.01512 | – |
| 2026 May 04 17:57 | 2026 Apr 30 01:40:27 | 18.5923 | 0.59015 | 4.7612 | 108.5658 | 315.3267 | 4.01512 | – |
| 2026 May 03 17:57 | 2026 Apr 30 01:40:27 | 18.5923 | 0.59015 | 4.7612 | 108.5658 | 315.3267 | 4.01512 | – |
| 2026 May 02 17:57 | 2026 Apr 30 01:40:27 | 18.5923 | 0.59015 | 4.7612 | 108.5658 | 315.3267 | 4.01512 | – |
| 2026 May 01 17:56 | 2026 Apr 30 01:40:27 | 18.5923 | 0.59015 | 4.7612 | 108.5658 | 315.3267 | 4.01512 | – |
| 2026 Apr 30 17:56 | 2026 Apr 30 01:40:27 | 18.5923 | 0.59015 | 4.7612 | 108.5658 | 315.3267 | 4.01512 | – |
| 2026 Apr 29 17:57 | 2026 Apr 24 02:18:26 | 18.5890 | 0.59019 | 5.0658 | 100.1638 | 315.3267 | 4.01512 | – |
| 2026 Apr 28 17:56 | 2026 Apr 24 02:18:26 | 18.5890 | 0.59019 | 5.0658 | 100.1638 | 315.3267 | 4.01512 | – |
| 2026 Apr 27 17:58 | 2026 Apr 24 02:18:26 | 18.5890 | 0.59019 | 5.0658 | 100.1638 | 315.3267 | 4.01512 | – |
| 2026 Apr 26 17:58 | 2026 Apr 24 02:18:26 | 18.5890 | 0.59019 | 5.0658 | 100.1638 | 315.3267 | 4.01512 | – |
| 2026 Apr 25 17:58 | 2026 Apr 24 02:18:26 | 18.5890 | 0.59019 | 5.0658 | 100.1638 | 315.3267 | 4.01512 | – |
| 2026 Apr 24 17:59 | 2026 Apr 24 02:18:26 | 18.5890 | 0.59019 | 5.0658 | 100.1638 | 315.3267 | 4.01512 | – |
| 2026 Apr 23 17:57 | 2026 Apr 19 02:49:01 | 18.5870 | 0.59021 | 5.3076 | 93.0749 | 315.3267 | 4.01512 | – |
| 2026 Apr 22 17:57 | 2026 Apr 19 02:49:01 | 18.5870 | 0.59021 | 5.3076 | 93.0749 | 315.3267 | 4.01512 | – |
| 2026 Apr 21 17:57 | 2026 Apr 19 02:49:01 | 18.5870 | 0.59021 | 5.3076 | 93.0749 | 315.3267 | 4.01512 | – |
| 2026 Apr 20 17:57 | 2026 Apr 19 02:49:01 | 18.5870 | 0.59021 | 5.3076 | 93.0749 | 315.3267 | 4.01512 | – |
| 2026 Apr 19 17:58 | 2026 Apr 19 02:49:01 | 18.5870 | 0.59021 | 5.3076 | 93.0749 | 315.3267 | 4.01512 | – |
| 2026 Apr 18 17:56 | 2026 Apr 12 21:26:09 | 18.5805 | 0.59035 | 5.6266 | 84.2633 | 315.3267 | 4.01512 | – |
| 2026 Apr 16 17:57 | 2026 Apr 12 21:26:09 | 18.5805 | 0.59035 | 5.6266 | 84.2633 | 315.3267 | 4.01512 | – |
| 2026 Apr 14 17:57 | 2026 Apr 12 21:26:09 | 18.5805 | 0.59035 | 5.6266 | 84.2633 | 315.3267 | 4.01512 | – |
| 2026 Apr 13 17:57 | 2026 Apr 12 21:26:09 | 18.5805 | 0.59035 | 5.6266 | 84.2633 | 315.3267 | 4.01512 | – |
| 2026 Apr 12 17:57 | 2026 Apr 08 03:53:39 | 18.5810 | 0.59027 | 5.8812 | 77.6783 | 315.3267 | 4.01512 | – |
| 2026 Apr 11 17:57 | 2026 Apr 08 03:53:39 | 18.5810 | 0.59027 | 5.8812 | 77.6783 | 315.3267 | 4.01512 | – |